Home > Products > Valid Products > TAF

000
FTUS41 KCLE 230900 AAB
TAFERI
TAF AMD
KERI 230911Z 2309/2406 04002KT 6SM BR SCT008 BKN015
      TEMPO 2310/2313 3SM BR BKN008
     FM231500 04008KT P6SM BKN025
     FM231700 03010KT P6SM SCT035
     FM240500 12005KT 6SM BR SCT040=



000
FTUS41 KCLE 230900 AAA
TAFYNG
TAF AMD
KYNG 230909Z 2309/2406 VRB03KT 5SM BR FEW003 BKN080
     FM231000 07002KT 1SM BR SCT003
      TEMPO 2310/2313 1/2SM FG BKN003
     FM231430 06004KT P6SM BKN020
     FM231800 04006KT P6SM BKN035
     FM240100 06004KT P6SM SCT040
     FM240500 07004KT 5SM BR SCT040=



000
FTUS41 KCLE 230900 AAB
TAFFDY
TAF AMD
KFDY 230907Z 2309/2406 05003KT 3SM BR SCT004
      TEMPO 2310/2313 1/2SM FG VV003
     FM231300 07005KT 2SM BR BKN007
     FM231430 06005KT P6SM BKN018
     FM231800 06006KT P6SM BKN035
     FM240000 07005KT P6SM SCT040
     FM240500 07004KT 5SM BR FEW040=



000
FTUS41 KCLE 230900 AAB
TAFTOL
TAF AMD
KTOL 230904Z 2309/2406 05003KT 6SM BR SCT008 BKN050
      TEMPO 2309/2313 3SM BR BKN008
     FM231400 06004KT P6SM SCT015 BKN060
     FM231700 06006KT P6SM BKN035
     FM240000 06004KT P6SM SCT040
     FM240500 06003KT 5SM BR FEW040=



000
FTUS41 KCLE 230800 AAA
TAFCLE
TAF AMD
KCLE 230853Z 2309/2412 VRB03KT 6SM BR BKN060
      TEMPO 2310/2313 4SM BR
     FM231400 06006KT P6SM SCT020 BKN060
     FM231700 04008KT P6SM SCT035
     FM240000 05005KT P6SM FEW040
     FM240600 08004KT 5SM BR SCT040=



000
FTUS41 KCLE 230800 AAA
TAFFDY
TAF AMD
KFDY 230819Z 2308/2406 VRB02KT 1/2SM FG VV004
      TEMPO 2309/2313 1/4SM FG VV002
     FM231330 07005KT 2SM BR BKN007
     FM231430 06005KT P6SM BKN018
     FM231800 06006KT P6SM BKN035
     FM240000 07005KT P6SM SCT040
     FM240500 07004KT 5SM BR FEW040=



000
FTUS41 KCLE 230600 AAA
TAFTOL
TAF AMD
KTOL 230651Z 2307/2406 06002KT 2SM BR SCT008
      TEMPO 2307/2310 1SM BR BKN008
     FM231000 06002KT 1SM BR BKN008
     FM231400 06004KT P6SM BKN015
     FM231700 06006KT P6SM BKN035
     FM240000 06004KT P6SM SCT040
     FM240500 06003KT 5SM BR FEW040=



000
FTUS41 KCLE 230600 AAA
TAFERI
TAF AMD
KERI 230610Z 2306/2406 09002KT 5SM BR SCT006
     FM230800 11004KT 3SM BR BKN006
     FM231500 04008KT P6SM BKN025
     FM231700 03010KT P6SM SCT035
     FM240500 12005KT 6SM BR SCT040=



000
FTUS41 KCLE 230500 CCC
TAFMFD
TAF COR
KMFD 230534Z 2306/2406 VRB02KT 1 1/2SM BR SCT004
      TEMPO 2309/2313 1/4SM FG VV002
     FM231300 06005KT 2SM BR BKN006
     FM231430 05005KT P6SM BKN018
     FM231800 04006KT P6SM BKN035
     FM240000 04004KT P6SM SCT040
     FM240500 07004KT 5SM BR FEW040=



000
FTUS41 KCLE 230500 CCB
TAFMFD
TAF COR
KMFD 230533Z 2306/2406 VRB02KT 3/4SM BR VV004
      TEMPO 2309/2313 1/4SM FG VV002
     FM231300 06005KT 2SM BR BKN006
     FM231430 05005KT P6SM BKN018
     FM231800 04006KT P6SM BKN035
     FM240000 04004KT P6SM SCT040
     FM240500 07004KT 5SM BR FEW040=



000
FTUS41 KCLE 230500 CCA
TAFMFD
TAF COR
KMFD 230530Z 2306/2406 VRB02KT 1/2SM FG SCT002
      TEMPO 2309/2313 VV002
     FM231300 06005KT 2SM BR BKN006
     FM231430 05005KT P6SM BKN018
     FM231800 04006KT P6SM BKN035
     FM240000 04004KT P6SM SCT040
     FM240500 07004KT 5SM BR FEW040=



000
FTUS41 KCLE 230500
TAFTOL
TAF
KTOL 230522Z 2306/2406 06002KT 4SM BR SCT015 BKN060
      TEMPO 2306/2310 BKN015
     FM231000 06002KT 1 1/2SM BR BKN012
     FM231400 06004KT P6SM BKN018
     FM231700 06006KT P6SM BKN035
     FM240000 06004KT P6SM SCT040
     FM240500 06003KT 5SM BR FEW040=



000
FTUS41 KCLE 230500
TAFERI
TAF
KERI 230522Z 2306/2406 09003KT 6SM BR FEW100
     FM230800 11004KT 3SM BR SCT008
     FM231500 04008KT P6SM BKN025
     FM231700 03010KT P6SM SCT035
     FM240500 12005KT 6SM BR SCT040=



000
FTUS41 KCLE 230500
TAFFDY
TAF
KFDY 230522Z 2306/2406 06003KT 6SM BR SCT050 BKN080
     FM230700 00000KT 3SM BR FEW015 SCT050
     FM231000 00000KT 1SM BR BKN005
     FM231330 07005KT 2SM BR BKN007
     FM231430 06005KT P6SM BKN018
     FM231800 06006KT P6SM BKN035
     FM240000 07005KT P6SM SCT040
     FM240500 07004KT 5SM BR FEW040=



000
FTUS41 KCLE 230500
TAFYNG
TAF
KYNG 230522Z 2306/2406 36003KT 6SM BR SCT030 BKN080
     FM230700 VRB03KT 5SM BR SCT030 BKN080
     FM230900 07002KT 1/2SM FG BKN003
     FM231430 06004KT P6SM BKN025
     FM231800 04006KT P6SM BKN035
     FM240100 06004KT P6SM SCT040
     FM240500 07004KT 5SM BR SCT040=



000
FTUS41 KCLE 230500
TAFCAK
TAF
KCAK 230522Z 2306/2406 03003KT 4SM BR SCT050
     FM231000 00000KT 1/2SM FG BKN003
     FM231330 VRB03KT 2SM BR BKN008
     FM231500 04006KT P6SM BKN020
     FM231800 04006KT P6SM BKN035
     FM240100 06004KT P6SM SCT040
     FM240500 07004KT 5SM BR SCT040=



000
FTUS41 KCLE 230500
TAFCLE
TAF
KCLE 230522Z 2306/2412 VRB03KT 4SM BR BKN070
     FM231400 06006KT P6SM BKN025
     FM231700 04008KT P6SM SCT035
     FM240000 05005KT P6SM FEW040
     FM240600 08004KT 5SM BR SCT040=



000
FTUS41 KCLE 230500
TAFMFD
TAF
KMFD 230522Z 2306/2406 36003KT 1 1/2SM BR FEW005 SCT080
     FM231000 02002KT 1/2SM FG VV002
     FM231300 06005KT 2SM BR BKN006
     FM231430 05005KT P6SM BKN018
     FM231800 04006KT P6SM BKN035
     FM240000 04004KT P6SM SCT040
     FM240500 07004KT 5SM BR FEW040=



000
FTUS41 KCLE 230300 AAA
TAFCLE
TAF AMD
KCLE 230306Z 2303/2406 05004KT P6SM SCT100
     FM230800 05003KT P6SM SCT025 BKN100
     FM231000 05003KT 4SM BR SCT025 BKN100
     FM231400 02006KT P6SM BKN035
     FM231700 04008KT P6SM FEW035=



000
FTUS41 KCLE 230200 AAA
TAFMFD
TAF AMD
KMFD 230226Z 2302/2324 03003KT 6SM BR FEW080
     FM230800 00000KT 3SM BR FEW015 SCT080
     FM230900 00000KT 1/2SM FG VV002
     FM231300 06005KT 2SM BR BKN006
     FM231430 05005KT P6SM BKN018
     FM231800 05006KT P6SM BKN035=



000
FTUS41 KCLE 230200 AAA
TAFTOL
TAF AMD
KTOL 230223Z 2302/2324 00000KT 6SM BR BKN080
     FM230800 00000KT 3SM BR SCT015
     FM231000 00000KT 1 1/2SM BR BKN015
     FM231400 06005KT P6SM BKN018
     FM231700 06005KT P6SM BKN035=



000
FTUS41 KCLE 230200 AAA
TAFFDY
TAF AMD
KFDY 230223Z 2302/2324 04003KT 6SM BR BKN080
     FM230700 00000KT 3SM BR SCT015
     FM230900 00000KT 1/2SM FG VV002
     FM231330 07005KT 2SM BR BKN006
     FM231430 06005KT P6SM BKN018
     FM231800 06005KT P6SM BKN035=



000
FTUS41 KCLE 222300 CCA
TAFERI
TAF COR
KERI 222346Z 2300/2324 06004KT P6SM SCT120
     FM230900 11004KT 3SM BR SCT008
     FM231500 03008KT P6SM SCT035=



000
FTUS41 KCLE 222300 RRA
TAFFDY
TAF
KFDY 222341Z 2300/2324 07004KT P6SM BKN050
     FM230300 00000KT P6SM SCT050 BKN200
     FM230700 00000KT 3SM BR SCT015
     FM230900 00000KT 1/2SM FG VV002
     FM231330 07005KT 2SM BR BKN006
     FM231430 06005KT P6SM BKN018
     FM231800 06005KT P6SM BKN035=



000
FTUS41 KCLE 222300 RRA
TAFCLE
TAF
KCLE 222341Z 2300/2406 05004KT P6SM SCT120
     FM230800 VRB03KT 4SM BR SCT025
     FM231400 02006KT P6SM BKN035
     FM231700 04008KT P6SM FEW035=



000
FTUS41 KCLE 222300 RRA
TAFERI
TAF
KERI 222341Z 2300/2324 35008KT P6SM SCT015 SCT120
     FM230100 07004KT P6SM SCT040
     FM230800 11004KT 3SM BR SCT008 OVC010
      TEMPO 2308/2312 1 1/2SM BR OVC005
     FM231500 03008KT P6SM SCT035=



000
FTUS41 KCLE 222300 RRA
TAFTOL
TAF
KTOL 222341Z 2300/2324 07004KT P6SM BKN050
     FM230300 00000KT P6SM SCT050 BKN200
     FM230800 00000KT 3SM BR SCT015
     FM231000 00000KT 1 1/2SM BR BKN015
     FM231400 06005KT P6SM BKN018
     FM231700 06005KT P6SM BKN035=



000
FTUS41 KCLE 222300 RRA
TAFMFD
TAF
KMFD 222341Z 2300/2324 29003KT P6SM BKN050
     FM230400 00000KT P6SM SCT050 BKN200
     FM230700 00000KT 3SM BR SCT015
     FM230900 00000KT 1/2SM FG VV002
     FM231300 06005KT 2SM BR BKN006
     FM231430 05005KT P6SM BKN018
     FM231800 05006KT P6SM BKN035=



000
FTUS41 KCLE 222300 RRA
TAFCAK
TAF
KCAK 222341Z 2300/2324 00000KT P6SM BKN070
     FM230300 00000KT P6SM SCT070
     FM230700 00000KT 4SM BR SCT020
     FM230900 00000KT 1/2SM FG BKN003
     FM231330 VRB03KT 2SM BR BKN008
     FM231500 04006KT P6SM BKN020
     FM231800 04006KT P6SM BKN035=



000
FTUS41 KCLE 222300 RRA
TAFYNG
TAF
KYNG 222341Z 2300/2324 VRB03KT P6SM SCT040
     FM230700 VRB03KT 5SM BR BKN035
     FM230900 08002KT 1/2SM FG BKN002
     FM231430 03004KT P6SM BKN025
     FM231800 03006KT P6SM BKN035=



000
FTUS41 KCLE 222000 AAB
TAFCLE
TAF AMD
KCLE 222053Z 2221/2324 01008KT P6SM FEW035 SCT120
     FM230100 03003KT P6SM SCT120
     FM230500 VRB03KT 4SM BR FEW008 BKN025
     FM231500 02008KT P6SM SCT250=



000
FTUS41 KCLE 222000 AAA
TAFERI
TAF AMD
KERI 222017Z 2220/2318 35008KT P6SM SCT015 SCT120
     FM230100 07004KT P6SM SCT040
     FM230800 11004KT 3SM BR SCT008 OVC010
      TEMPO 2308/2312 1 1/2SM BR OVC005
     FM231500 03008KT P6SM SCT035=



000
FTUS41 KCLE 222000 AAB
TAFYNG
TAF AMD
KYNG 222016Z 2220/2318 VRB03KT P6SM BKN035
     FM230300 VRB03KT 6SM BR BKN035
     FM230700 08002KT 1/2SM FG BKN002
     FM231500 03004KT 5SM BR BKN025=



000
FTUS41 KCLE 222000 AAA
TAFCAK
TAF AMD
KCAK 222012Z 2220/2318 26003KT P6SM VCTS BKN045CB
     FM230000 26003KT P6SM BKN045
     FM230300 VRB03KT 4SM BR BKN020
     FM230800 VRB03KT 1/2SM FG BKN003
     FM231500 VRB03KT 4SM HZ OVC025=



000
FTUS41 KCLE 222000 AAA
TAFMFD
TAF AMD
KMFD 222006Z 2220/2318 34004KT P6SM VCTS BKN035CB
     FM230000 34004KT P6SM BKN035
     FM230600 VRB03KT 4SM BR SCT015 BKN120
     FM230900 VRB03KT 1 1/2SM BR BKN003
      TEMPO 2311/2313 1/2SM FG
     FM231400 VRB04KT P6SM OVC020=



000
FTUS41 KCLE 222000 AAA
TAFFDY
TAF AMD
KFDY 222004Z 2220/2318 26004KT P6SM VCTS BKN035CB
     FM230000 26004KT P6SM BKN045
     FM230400 07003KT 5SM BR SCT015 OVC100
     FM230800 VRB03KT 1/2SM FG OVC002
     FM231400 08003KT 5SM BR BKN015
     FM231600 08005KT P6SM BKN025=



000
FTUS41 KCLE 222000 AAA
TAFTOL
TAF AMD
KTOL 222002Z 2220/2318 VRB04KT P6SM BKN035
     FM230600 05002KT 3SM BR SCT015 BKN035
     FM231000 06003KT 1 1/2SM BR OVC002
     FM231400 06005KT 5SM BR BKN015
     FM231600 06005KT P6SM BKN035=



000
FTUS41 KCLE 221900 AAA
TAFYNG
TAF AMD
KYNG 221941Z 2220/2318 VRB03KT P6SM BKN030
     FM230300 VRB03KT 6SM BR BKN035
     FM230700 08002KT 1/2SM FG BKN002
     FM231500 03004KT 5SM BR BKN025=



000
FTUS41 KCLE 221900 AAA
TAFCLE
TAF AMD
KCLE 221940Z 2220/2324 01008KT P6SM SCT035 SCT250
     FM230500 VRB03KT 4SM BR FEW008 BKN025
     FM231500 02008KT P6SM SCT250=



000
FTUS41 KCLE 221700
TAFMFD
TAF
KMFD 221730Z 2218/2318 VRB03KT P6SM SCT025
      TEMPO 2218/2222 BKN025
     FM230600 VRB03KT 4SM BR SCT015 BKN120
     FM230900 VRB03KT 1 1/2SM BR BKN003
      TEMPO 2311/2313 1/2SM FG
     FM231400 VRB04KT P6SM OVC020=



000
FTUS41 KCLE 221700
TAFYNG
TAF
KYNG 221730Z 2218/2318 VRB03KT P6SM SCT005 BKN013
      TEMPO 2218/2220 BKN010
     FM230300 VRB03KT 6SM BR BKN035
     FM230700 08002KT 1/2SM FG BKN002
     FM231500 03004KT 5SM BR BKN025=



000
FTUS41 KCLE 221700
TAFTOL
TAF
KTOL 221730Z 2218/2318 VRB04KT P6SM SCT010 SCT035
      TEMPO 2218/2222 BKN020
     FM230600 05002KT 3SM BR SCT015 BKN035
     FM231000 06003KT 1 1/2SM BR OVC002
     FM231400 06005KT 5SM BR BKN015
     FM231600 06005KT P6SM BKN035=



000
FTUS41 KCLE 221700
TAFCAK
TAF
KCAK 221730Z 2218/2318 VRB04KT P6SM SCT008 OVC025
     FM230300 VRB03KT 4SM BR BKN020
     FM230800 VRB03KT 1/2SM FG BKN003
     FM231500 VRB03KT 4SM HZ OVC025=



000
FTUS41 KCLE 221700
TAFERI
TAF
KERI 221730Z 2218/2318 VRB04KT P6SM SCT015 SCT120
      TEMPO 2218/2222 BKN015
     FM230800 11004KT 3SM BR SCT008 OVC010
      TEMPO 2308/2312 1 1/2SM BR OVC005
     FM231500 03008KT P6SM SCT035=



000
FTUS41 KCLE 221700
TAFCLE
TAF
KCLE 221730Z 2218/2324 VRB04KT P6SM SCT025 BKN250
      TEMPO 2218/2220 BKN025
     FM222000 01008KT P6SM SCT035 BKN100
     FM230500 VRB03KT 4SM BR FEW008 BKN025
     FM231500 02008KT P6SM SCT250=



000
FTUS41 KCLE 221700
TAFFDY
TAF
KFDY 221730Z 2218/2318 VRB04KT P6SM SCT025
      TEMPO 2218/2222 BKN025
     FM222200 VRB04KT P6SM VCTS SCT025 OVC040CB
     FM230400 07003KT 5SM BR SCT015 OVC100
     FM230800 VRB03KT 1/2SM FG OVC002
     FM231400 08003KT 5SM BR BKN015
     FM231600 08005KT P6SM BKN025=



000
FTUS41 KCLE 221500 AAA
TAFCLE
TAF AMD
KCLE 221506Z 2215/2318 VRB04KT P6SM SCT015 BKN250
      TEMPO 2215/2219 BKN015
     FM221900 01008KT P6SM SCT035 BKN100
     FM230500 VRB03KT 4SM BR FEW008 BKN025=



000
FTUS41 KCLE 221500 AAB
TAFYNG
TAF AMD
KYNG 221504Z 2215/2312 VRB03KT 3SM BR SCT005 BKN035
      TEMPO 2215/2217 2SM -RA BR OVC005
     FM222000 VRB03KT P6SM VCTS SCT025 OVC035CB
     FM230200 VRB03KT 6SM BR SCT035 BKN150
     FM230700 08002KT 1/2SM FG BKN002=



000
FTUS41 KCLE 221400 AAA
TAFYNG
TAF AMD
KYNG 221406Z 2214/2312 VRB04KT 4SM BR VCSH SCT005 BKN050
      TEMPO 2214/2215 3SM -RA BR BKN005 OVC050
     FM221500 VRB03KT P6SM VCSH SCT015 BKN035
     FM222000 VRB03KT P6SM VCTS SCT025 OVC035CB
     FM230200 VRB03KT 6SM BR SCT035 BKN150
     FM230700 08002KT 1/2SM FG BKN002=



000
FTUS41 KCLE 221400 AAB
TAFFDY
TAF AMD
KFDY 221402Z 2214/2312 VRB03KT P6SM SCT009 SCT025
      TEMPO 2214/2215 BKN020
     FM221500 19005KT P6SM BKN035 OVC100
     FM222000 VRB04KT P6SM VCTS SCT025 OVC040CB
     FM230400 07003KT 5SM BR SCT015 OVC100
     FM230900 VRB03KT 1/2SM FG OVC002=



000
FTUS41 KCLE 221300 AAA
TAFERI
TAF AMD
KERI 221358Z 2214/2312 VRB04KT P6SM VCSH SCT015 BKN035
      TEMPO 2214/2216 BKN015
     FM221600 VRB04KT P6SM SCT025 BKN035
     FM230800 11004KT 2SM BR SCT008 OVC015=



000
FTUS41 KCLE 221300 AAA
TAFMFD
TAF AMD
KMFD 221324Z 2213/2312 VRB03KT P6SM SCT025
      TEMPO 2214/2216 OVC025
     FM221900 VRB04KT P6SM VCTS SCT035 OVC045CB
     FM230300 VRB03KT 4SM BR FEW015 BKN150
     FM230800 VRB03KT 1/2SM FG BKN003=



000
FTUS41 KCLE 221300 AAA
TAFTOL
TAF AMD
KTOL 221308Z 2213/2312 VRB04KT P6SM FEW030
     FM221500 09005KT P6SM SCT035
     FM222300 VRB03KT P6SM FEW045 SCT150
     FM230600 05002KT 3SM BR SCT015 BKN035
     FM231000 06003KT 1/2SM FG OVC002=



000
FTUS41 KCLE 221200 AAA
TAFCLE
TAF AMD
KCLE 221257Z 2213/2318 VRB04KT P6SM SCT015 BKN250
     FM221900 01008KT P6SM SCT035 BKN100
     FM230500 VRB03KT 4SM BR FEW008 BKN025=



000
FTUS41 KCLE 221200 AAA
TAFFDY
TAF AMD
KFDY 221250Z 2213/2312 20003KT P6SM SCT009 OVC025
      TEMPO 2213/2214 5SM BR BKN009 OVC025
     FM221500 19005KT P6SM BKN035 OVC100
     FM222000 VRB04KT P6SM VCTS SCT025 OVC040CB
     FM230400 07003KT 5SM BR SCT015 OVC100
     FM230900 VRB03KT 1/2SM FG OVC002=



000
FTUS41 KCLE 221100 CCA
TAFFDY
TAF COR
KFDY 221153Z 2212/2312 20003KT 1 1/2SM BR BKN002 OVC012
      TEMPO 2213/2215 4SM BR SCT006 OVC015
     FM221500 19005KT P6SM BKN035 OVC100
     FM222000 VRB04KT P6SM VCTS SCT025 OVC040CB
     FM230400 07003KT 5SM BR SCT015 OVC100
     FM230900 VRB03KT 1/2SM FG OVC002=



000
FTUS41 KCLE 221100 CCB
TAFYNG
TAF COR
KYNG 221149Z 2212/2312 VRB04KT 4SM BR SCT002 OVC015
      TEMPO 2212/2214 2SM BR BKN015 OVC025
     FM221500 VRB03KT P6SM VCSH SCT015 BKN035
     FM222000 VRB03KT P6SM VCTS SCT025 OVC035CB
     FM230200 VRB03KT 6SM BR SCT035 BKN150
     FM230700 08002KT 1/2SM FG BKN002=



000
FTUS41 KCLE 221100 CCA
TAFYNG
TAF COR
KYNG 221146Z 2212/2312 VRB04KT 2SM BR SCT002 OVC015
      TEMPO 2213/2215 4SM BR BKN015 OVC025
     FM221500 VRB03KT P6SM VCSH SCT015 BKN035
     FM222000 VRB03KT P6SM VCTS SCT025 OVC035CB
     FM230200 VRB03KT 6SM BR SCT035 BKN150
     FM230700 08002KT 1/2SM FG BKN002=



000
FTUS41 KCLE 221100
TAFFDY
TAF
KFDY 221124Z 2212/2312 20003KT 1/4SM FG VV002
      TEMPO 2213/2215 4SM BR SCT006 OVC015
     FM221500 19005KT P6SM BKN035 OVC100
     FM222000 VRB04KT P6SM VCTS SCT025 OVC040CB
     FM230400 07003KT 5SM BR SCT015 OVC100
     FM230900 VRB03KT 1/2SM FG OVC002=



000
FTUS41 KCLE 221100
TAFCLE
TAF
KCLE 221124Z 2212/2318 VRB03KT P6SM SCT015 OVC050
      TEMPO 2212/2215 5SM BR SCT008 OVC015
     FM221900 01008KT P6SM SCT035 BKN100
     FM230500 VRB03KT 4SM BR FEW008 BKN025=



000
FTUS41 KCLE 221100
TAFMFD
TAF
KMFD 221124Z 2212/2312 VRB03KT 3SM BR SCT002 OVC008
      TEMPO 2212/2214 1/2SM FG VV002
     FM221600 18004KT P6SM BKN025 OVC100
     FM221900 VRB04KT P6SM VCTS SCT015 OVC035CB
     FM230300 VRB03KT 4SM BR FEW015 BKN150
     FM230800 VRB03KT 1/2SM FG BKN003=



000
FTUS41 KCLE 221100
TAFYNG
TAF
KYNG 221124Z 2212/2312 VRB04KT 1SM BR SCT002 OVC015
      TEMPO 2213/2215 4SM BR BKN015 OVC025
     FM221500 VRB03KT P6SM VCSH SCT015 BKN035
     FM222000 VRB03KT P6SM VCTS SCT025 OVC035CB
     FM230200 VRB03KT 6SM BR SCT035 BKN150
     FM230700 08002KT 1/2SM FG BKN002=



000
FTUS41 KCLE 221100
TAFERI
TAF
KERI 221124Z 2212/2312 VRB04KT P6SM VCSH SCT015 OVC025
      TEMPO 2212/2216 3SM -TSRA BR SCT008 OVC015CB
     FM221600 VRB04KT P6SM SCT025 BKN035
     FM230800 11004KT 2SM BR SCT008 OVC015=



000
FTUS41 KCLE 221100
TAFTOL
TAF
KTOL 221124Z 2212/2312 VRB04KT 6SM BR SCT004 OVC035
      TEMPO 2212/2214 3SM BR OVC004
     FM221500 09005KT P6SM SCT015 BKN035
     FM222300 VRB03KT P6SM FEW035 SCT150
     FM230600 05002KT 3SM BR SCT015 BKN035
     FM231000 06003KT 1/2SM FG OVC002=



000
FTUS41 KCLE 221100
TAFCAK
TAF
KCAK 221124Z 2212/2312 VRB04KT P6SM SCT008 OVC025
      TEMPO 2212/2215 3SM BR BKN008 OVC012
     FM221900 VRB04KT P6SM VCTS SCT015 OVC035CB
     FM230300 VRB03KT 4SM BR FEW015 BKN150
     FM230800 VRB03KT 1/2SM FG BKN003=



000
FTUS41 KCLE 221000 AAC
TAFYNG
TAF AMD
KYNG 221007Z 2210/2306 VRB03KT 3SM BR SCT002 OVC008
      TEMPO 2210/2213 1/2SM FG VV002
     FM221400 VRB03KT P6SM VCTS SCT025 BKN035CB
     FM221900 26005KT P6SM SCT035 OVC100
     FM230300 VRB03KT 5SM BR BKN100=



000
FTUS41 KCLE 221000 AAB
TAFCAK
TAF AMD
KCAK 221006Z 2210/2306 VRB03KT 6SM BR SCT015 OVC050
      TEMPO 2210/2213 1SM BR BKN008 OVC015
     FM221500 VRB03KT P6SM VCTS SCT025 BKN035CB
     FM221900 26005KT P6SM SCT035 OVC100
     FM230300 VRB03KT 5SM BR BKN100=



000
FTUS41 KCLE 221000 AAA
TAFCLE
TAF AMD
KCLE 221004Z 2210/2312 VRB03KT P6SM SCT015 OVC050
      TEMPO 2210/2213 3SM BR SCT008 OVC015
     FM221900 01008KT P6SM SCT035 BKN100
     FM230500 12004KT P6SM BKN150=



000
FTUS41 KCLE 221000 AAB
TAFMFD
TAF AMD
KMFD 221003Z 2210/2306 VRB03KT 3SM BR SCT002 OVC008
      TEMPO 2210/2213 1/2SM FG VV002
     FM221400 26005KT P6SM VCTS SCT025 BKN035CB
     FM222100 VRB03KT P6SM SCT035 BKN150
     FM230400 VRB03KT 4SM BR FEW015 BKN150=



000
FTUS41 KCLE 221000 AAC
TAFFDY
TAF AMD
KFDY 221002Z 2210/2306 VRB03KT 2SM BR VCSH SCT005 OVC015
      TEMPO 2210/2212 1/4SM FG VV002
     FM221200 19003KT 5SM BR VCSH SCT008 OVC025
     FM221500 26005KT P6SM SCT035 BKN100
     FM230400 VRB03KT 4SM BR FEW015 BKN150=



000
FTUS41 KCLE 220900 AAA
TAFMFD
TAF AMD
KMFD 220904Z 2209/2306 VRB03KT 6SM BR SCT007 OVC015
      TEMPO 2209/2213 3SM BR OVC007
     FM221600 26005KT P6SM VCTS SCT025 BKN035CB
     FM222100 VRB03KT P6SM SCT035 BKN150
     FM230400 VRB03KT 4SM BR FEW015 BKN150=



000
FTUS41 KCLE 220800 AAB
TAFFDY
TAF AMD
KFDY 220854Z 2209/2306 VRB03KT 5SM BR SCT005 OVC015
      TEMPO 2209/2212 2SM BR OVC005
     FM221200 19003KT 5SM BR VCSH SCT008 OVC025
     FM221500 26005KT P6SM SCT035 BKN100
     FM230400 VRB03KT 4SM BR FEW015 BKN150=



000
FTUS41 KCLE 220800 AAA
TAFCLE
TAF AMD
KCLE 220853Z 2209/2312 VRB03KT P6SM SCT015 OVC025
      TEMPO 2209/2213 4SM BR SCT008 OVC015
     FM221900 01008KT P6SM SCT035 BKN100
     FM230500 12004KT P6SM BKN150=



000
FTUS41 KCLE 220800 AAB
TAFYNG
TAF AMD
KYNG 220839Z 2209/2306 VRB03KT 5SM BR SCT015 OVC150
      TEMPO 2209/2212 1SM BR BKN008 OVC015
     FM221200 VRB03KT 4SM BR SCT008 BKN015
     FM221400 VRB03KT P6SM VCTS SCT025 BKN035CB
     FM221900 26005KT P6SM SCT035 OVC100
     FM230300 VRB03KT 5SM BR BKN100=



000
FTUS41 KCLE 220800 AAA
TAFCAK
TAF AMD
KCAK 220815Z 2208/2306 VRB03KT 6SM BR SCT008 BKN015
      TEMPO 2209/2213 3SM BR OVC008
     FM221500 VRB03KT P6SM VCTS SCT025 BKN035CB
     FM221900 26005KT P6SM SCT035 OVC100
     FM230300 VRB03KT 5SM BR BKN100=



000
FTUS41 KCLE 220700 AAA
TAFERI
TAF AMD
KERI 220752Z 2208/2306 VRB03KT P6SM SCT008 OVC025
      TEMPO 2208/2212 5SM BR OVC008
     FM221300 VRB03KT P6SM BKN015 OVC025
     FM221700 01008KT P6SM BKN035
     FM230000 VRB03KT P6SM FEW040 BKN100=



000
FTUS41 KCLE 220700 AAB
TAFTOL
TAF AMD
KTOL 220739Z 2208/2306 00000KT 5SM BR SCT006 OVC012
      TEMPO 2208/2212 2SM BR OVC006
     FM221500 VRB04KT P6SM BKN035
     FM230300 VRB03KT 5SM BR FEW015 BKN150=



000
FTUS41 KCLE 220700 AAA
TAFTOL
TAF AMD
KTOL 220720Z 2207/2306 00000KT 5SM BR SCT006 OVC012
      TEMPO 2209/2213 2SM BR OVC006
     FM221500 VRB04KT P6SM BKN035
     FM230300 VRB03KT 5SM BR FEW015 BKN150=



000
FTUS41 KCLE 220600 AAA
TAFYNG
TAF AMD
KYNG 220656Z 2207/2306 VRB03KT P6SM VCSH SCT025 OVC100
      TEMPO 2207/2211 3SM -SHRA BR SCT015 OVC025
     FM221200 VRB03KT 4SM BR SCT008 BKN015
     FM221400 VRB03KT P6SM VCTS SCT025 BKN035CB
     FM221900 26005KT P6SM SCT035 OVC100
     FM230300 VRB03KT 5SM BR BKN100=



000
FTUS41 KCLE 220600 AAA
TAFFDY
TAF AMD
KFDY 220604Z 2206/2306 VRB04KT P6SM BKN009 OVC015
     FM221000 VRB03KT 5SM BR SCT015 BKN025
     FM221200 19003KT 5SM BR VCSH SCT008 OVC025
     FM221500 26005KT P6SM SCT035 BKN100
     FM230400 VRB03KT 4SM BR FEW015 BKN150=



000
FTUS41 KCLE 220500
TAFYNG
TAF
KYNG 220520Z 2206/2306 VRB03KT P6SM VCSH SCT025 OVC100
      TEMPO 2208/2212 3SM -SHRA BR SCT015 OVC025
     FM221200 VRB03KT 4SM BR SCT008 BKN015
     FM221400 VRB03KT P6SM VCTS SCT025 BKN035CB
     FM221900 26005KT P6SM SCT035 OVC100
     FM230300 VRB03KT 5SM BR BKN100=



000
FTUS41 KCLE 220500
TAFTOL
TAF
KTOL 220520Z 2206/2306 00000KT P6SM SCT030 OVC100
     FM220900 00000KT 4SM BR SCT015 BKN030
      TEMPO 2210/2213 2SM BR SCT008 OVC015
     FM221500 VRB04KT P6SM BKN035
     FM230300 VRB03KT 5SM BR FEW015 BKN150=



000
FTUS41 KCLE 220500
TAFCLE
TAF
KCLE 220520Z 2206/2312 20004KT P6SM VCSH SCT040 OVC100
      TEMPO 2207/2209 2SM -TSRA BR BKN025CB OVC040
     FM221100 VRB03KT P6SM FEW015 BKN035
     FM221900 01008KT P6SM SCT035 BKN100
     FM230500 12004KT P6SM BKN150=



000
FTUS41 KCLE 220500
TAFFDY
TAF
KFDY 220520Z 2206/2306 VRB04KT P6SM BKN015 OVC100
     FM221000 VRB03KT 5SM BR SCT015 BKN025
     FM221200 19003KT 5SM BR VCSH SCT008 OVC025
     FM221500 26005KT P6SM SCT035 BKN100
     FM230400 VRB03KT 4SM BR FEW015 BKN150=



000
FTUS41 KCLE 220500
TAFERI
TAF
KERI 220520Z 2206/2306 VRB03KT P6SM VCSH SCT015 OVC035
      TEMPO 2206/2210 3SM -TSRA BR BKN015 OVC025CB
     FM221300 VRB03KT P6SM BKN015 OVC025
     FM221700 01008KT P6SM BKN035
     FM230000 VRB03KT P6SM FEW040 BKN100=



000
FTUS41 KCLE 220500
TAFCAK
TAF
KCAK 220520Z 2206/2306 VRB03KT P6SM VCSH FEW008 OVC100
     FM221000 VRB03KT 4SM BR SCT008 BKN015
     FM221500 VRB03KT P6SM VCTS SCT025 BKN035CB
     FM221900 26005KT P6SM SCT035 OVC100
     FM230300 VRB03KT 5SM BR BKN100=



000
FTUS41 KCLE 220500
TAFMFD
TAF
KMFD 220520Z 2206/2306 VRB03KT P6SM VCSH SCT015 OVC025
     FM221000 VRB03KT 5SM BR SCT015 BKN100
      TEMPO 2211/2213 3SM BR BKN015
     FM221600 26005KT P6SM VCTS SCT025 BKN035CB
     FM222100 VRB03KT P6SM SCT035 BKN150
     FM230400 VRB03KT 4SM BR FEW015 BKN150=



000
FTUS41 KCLE 220300 AAB
TAFCLE
TAF AMD
KCLE 220303Z 2203/2306 20004KT P6SM VCSH SCT040 BKN100
     FM220700 21003KT P6SM BKN035
      TEMPO 2207/2210 4SM -SHRA
     FM221400 21005KT P6SM VCTS BKN030CB
     FM221800 35006KT P6SM BKN035
     FM230000 03005KT P6SM SCT035 BKN120=



000
FTUS41 KCLE 220200 AAA
TAFERI
TAF AMD
KERI 220256Z 2203/2224 VRB03KT P6SM VCSH BKN025
     FM221500 33005KT P6SM VCSH BKN035
     FM222000 34005KT P6SM BKN035=



000
FTUS41 KCLE 220200 AAA
TAFYNG
TAF AMD
KYNG 220249Z 2203/2224 23004KT P6SM VCSH BKN020
     FM220700 23006KT 4SM BR VCTS BKN020CB
      TEMPO 2208/2212 5SM SHRA OVC030
     FM221400 25006KT P6SM VCTS BKN030CB
     FM221700 25006KT P6SM BKN035=



000
FTUS41 KCLE 220200 AAA
TAFCAK
TAF AMD
KCAK 220238Z 2203/2224 22005KT P6SM SCT035 BKN100
     FM220900 24006KT 5SM BR BKN020
     FM221400 25006KT P6SM VCTS BKN030CB
     FM221900 28006KT P6SM BKN035=



000
FTUS41 KCLE 220200 AAA
TAFCLE
TAF AMD
KCLE 220235Z 2203/2306 20004KT P6SM VCSH SCT040 BKN100
     FM221000 21003KT 4SM BR BKN030
     FM221400 21005KT P6SM VCTS BKN030CB
     FM221800 35006KT P6SM BKN035
     FM230000 03005KT P6SM SCT035 BKN120=



000
FTUS41 KCLE 220200 AAA
TAFMFD
TAF AMD
KMFD 220231Z 2203/2224 20005KT P6SM VCSH SCT030 OVC120
     FM220800 20005KT 5SM BR SCT010 BKN020
     FM221500 26006KT P6SM VCTS SCT020CB OVC035
     FM221800 24005KT P6SM BKN035=



000
FTUS41 KCLE 220200 AAB
TAFFDY
TAF AMD
KFDY 220224Z 2202/2224 21005KT P6SM VCSH SCT040 OVC120
     FM220400 23005KT P6SM SCT030 OVC120
     FM220900 22004KT 4SM BR BKN030
     FM221200 24005KT 6SM -SHRA BR VCTS OVC025CB
     FM221500 28005KT P6SM SCT020 OVC035=



000
FTUS41 KCLE 220200 AAA
TAFTOL
TAF AMD
KTOL 220218Z 2202/2224 21003KT P6SM SCT030 BKN120
     FM220900 21003KT 4SM BR BKN030
     FM221300 24005KT P6SM VCTS OVC025CB
     FM221600 28005KT P6SM OVC035=



000
FTUS41 KCLE 220100 AAA
TAFFDY
TAF AMD
KFDY 220131Z 2202/2224 21005KT P6SM VCSH SCT040 OVC120
     FM220400 23005KT P6SM VCSH SCT040 OVC120
      TEMPO 2208/2212 4SM TSRA OVC035CB
     FM221200 24005KT 5SM -SHRA BR VCTS OVC025CB
     FM221500 28005KT P6SM SCT020 OVC035=



000
FTUS41 KCLE 212300 CCA
TAFERI
TAF AMD
KERI 212355Z 2200/2224 VRB03KT P6SM BKN025
     FM220200 21006KT P6SM SCT025 BKN035
     FM220900 23006KT P6SM BKN030
     FM221500 33005KT P6SM VCTS BKN035CB
     FM222000 34005KT P6SM BKN035=



000
FTUS41 KCLE 212300
TAFMFD
TAF
KMFD 212340Z 2200/2224 23006KT P6SM BKN030
     FM220100 23005KT P6SM SCT030
     FM220600 23005KT 5SM BR BKN030
      TEMPO 2210/2214 3SM TSRA OVC025CB
     FM221500 26006KT P6SM SCT020 OVC035=



000
FTUS41 KCLE 212300
TAFCAK
TAF
KCAK 212340Z 2200/2224 24008KT P6SM BKN035
     FM220500 24006KT P6SM VCTS BKN035CB
      TEMPO 2205/2209 5SM -SHRA OVC030
     FM220900 24006KT 5SM BR BKN020
     FM221200 25006KT P6SM VCTS BKN030CB
     FM221700 25006KT P6SM BKN035=



000
FTUS41 KCLE 212300
TAFYNG
TAF
KYNG 212340Z 2200/2224 VRB03KT P6SM BKN025
      TEMPO 2200/2201 4SM -TSRA OVC025CB
     FM220100 24008KT P6SM BKN030
     FM220500 24006KT P6SM VCTS BKN035CB
      TEMPO 2205/2209 5SM -SHRA OVC030
     FM220900 24006KT 5SM BR BKN020
     FM221200 25006KT P6SM VCTS BKN030CB
     FM221700 25006KT P6SM BKN035=



000
FTUS41 KCLE 212300
TAFERI
TAF
KERI 212340Z 2200/2224 31008KT P6SM BKN025
     FM220200 23007KT P6SM SCT030 BKN100
     FM220900 23006KT 5SM BR VCSH SCT040 BKN100
     FM221200 24006KT 6SM BR VCSH BKN035 BKN100=



000
FTUS41 KCLE 212300
TAFFDY
TAF
KFDY 212340Z 2200/2224 23006KT P6SM SCT030
     FM220300 23005KT P6SM VCTS BKN035CB OVC080
      TEMPO 2208/2212 4SM TSRA OVC025CB
     FM221200 24005KT 5SM -SHRA BR VCTS OVC025CB
     FM221500 28005KT P6SM SCT020 OVC035=



000
FTUS41 KCLE 212300
TAFCLE
TAF
KCLE 212340Z 2200/2306 24008KT P6SM BKN035
     FM220400 24006KT P6SM VCTS BKN035CB
      TEMPO 2204/2208 5SM -SHRA OVC030
     FM220800 24006KT P6SM BKN030
     FM221200 25006KT P6SM VCTS BKN030CB
     FM221700 25006KT P6SM BKN035=



000
FTUS41 KCLE 212300
TAFTOL
TAF
KTOL 212340Z 2200/2224 23006KT P6SM BKN040
     FM220300 23005KT P6SM VCSH BKN035 OVC080
      TEMPO 2208/2212 4SM TSRA OVC025CB
     FM221200 24005KT 5SM -SHRA BR VCTS OVC025CB
     FM221500 28005KT P6SM OVC035=



000
FTUS41 KCLE 212300 AAA
TAFYNG
TAF AMD
KYNG 212328Z 2123/2218 23010KT P6SM BKN025
      TEMPO 2123/2201 3SM TSRA OVC025CB
     FM220600 24007KT 6SM BR VCTS BKN030CB OVC100
     FM221200 24007KT 6SM BR VCSH BKN030=



000
FTUS41 KCLE 212200 AAB
TAFERI
TAF AMD
KERI 212228Z 2122/2218 31008KT P6SM BKN025
     FM220200 23007KT P6SM BKN035
     FM220900 23006KT 5SM BR VCSH SCT040 BKN100
     FM221200 24006KT 6SM BR VCSH BKN035 BKN100=



000
FTUS41 KCLE 212200 AAC
TAFCAK
TAF AMD
KCAK 212200Z 2122/2218 23010KT P6SM BKN025
     FM220000 23008KT P6SM BKN035
      TEMPO 2204/2208 2SM TSRA BR SCT015 OVC025CB
     FM220800 25004KT P6SM BKN035
     FM221600 24007KT 6SM BR VCSH BKN025=



000
FTUS41 KCLE 212100 AAC
TAFFDY
TAF AMD
KFDY 212158Z 2122/2218 26008KT P6SM SCT018 BKN040
      TEMPO 2202/2205 3SM TSRA OVC035CB
     FM220500 23005KT 5SM BR VCTS BKN035CB OVC080
      TEMPO 2208/2212 1SM +TSRA BR BKN015CB OVC025
     FM221200 24007KT 6SM BR VCSH BKN030=



000
FTUS41 KCLE 212000 AAA
TAFERI
TAF AMD
KERI 212047Z 2121/2218 31008KT P6SM SCT040 BKN100
     FM220200 23007KT 5SM BR SCT050 BKN100
     FM220900 23006KT 5SM BR VCSH SCT040 BKN100
     FM221200 24006KT 6SM BR VCSH BKN035 BKN100=



000
FTUS41 KCLE 212000 CCB
TAFYNG
TAF COR
KYNG 212047Z 2121/2218 23010KT P6SM BKN035
     FM220600 24007KT 6SM BR VCTS BKN030CB OVC100
     FM221200 24007KT 6SM BR VCSH BKN030=



000
FTUS41 KCLE 212000 CCA
TAFYNG
TAF COR
KYNG 212045Z 2121/2218 23010KT P6SM VCSH BKN035
     FM220000 23008KT P6SM BKN035 BKN100
     FM220600 24007KT 6SM BR VCTS BKN030CB OVC100
     FM221200 24007KT 6SM BR VCSH BKN030=



000
FTUS41 KCLE 212000 AAB
TAFYNG
TAF AMD
KYNG 212044Z 2121/2218 23010G16KT P6SM VCSH BKN035
     FM220000 23008KT P6SM BKN035 BKN100
     FM220600 24007KT 6SM BR VCTS BKN030CB OVC100
     FM221200 24007KT 6SM BR VCSH BKN030=



000
FTUS41 KCLE 212000 AAB
TAFCAK
TAF AMD
KCAK 212043Z 2121/2218 23012G16KT P6SM SCT020 BKN040 BKN150
     FM220000 23008KT P6SM SCT035 BKN100
      TEMPO 2202/2206 1SM TSRA BR SCT015 OVC025CB
     FM220600 25004KT P6SM BKN035
     FM221600 24007KT 6SM BR VCSH BKN025=



000
FTUS41 KCLE 212000 AAB
TAFCLE
TAF AMD
KCLE 212040Z 2121/2224 25008KT P6SM SCT020 BKN040
     FM220000 24008KT P6SM BKN035 BKN100
      TEMPO 2204/2206 3SM -TSRA BR BKN025CB OVC080
     FM220800 16006KT P6SM BKN035 OVC100
      TEMPO 2211/2215 1SM +TSRA BR BKN015CB OVC025
     FM221600 24007KT 6SM BR VCSH BKN030=



000
FTUS41 KCLE 212000 AAB
TAFMFD
TAF AMD
KMFD 212039Z 2121/2218 24008KT P6SM BKN018
     FM220000 23007KT P6SM BKN035
     FM220200 23005KT 5SM BR VCTS BKN035CB OVC080
      TEMPO 2210/2212 1SM TSRA BR BKN015CB OVC025
     FM221200 24007KT 6SM BR VCSH BKN030=



000
FTUS41 KCLE 212000 AAB
TAFFDY
TAF AMD
KFDY 212038Z 2121/2218 24008KT P6SM BKN018 OVC100
     FM220000 23006KT P6SM BKN040 BKN120
      TEMPO 2200/2203 3SM TSRA OVC035CB
     FM220300 23005KT 5SM BR VCTS BKN035CB OVC080
      TEMPO 2208/2212 1SM +TSRA BR BKN015CB OVC025
     FM221200 24007KT 6SM BR VCSH BKN030=



000
FTUS41 KCLE 211900 AAA
TAFYNG
TAF AMD
KYNG 211952Z 2120/2218 23010G16KT P6SM VCSH BKN035
      TEMPO 2120/2124 5SM -TSRA BR BKN020CB BKN050
     FM220000 23008KT P6SM -SHRA BKN035 BKN100
     FM220600 24007KT 6SM BR VCTS BKN030CB OVC100
     FM221200 24007KT 6SM BR VCSH BKN030=



000
FTUS41 KCLE 211900 AAA
TAFCAK
TAF AMD
KCAK 211949Z 2120/2218 23012G16KT P6SM SCT020 BKN040 BKN150
      TEMPO 2120/2124 6SM -TSRA BR BKN020CB BKN035
     FM220000 23008KT P6SM SCT035 BKN100
      TEMPO 2202/2206 1SM TSRA BR SCT015 OVC025CB
     FM220600 25004KT P6SM BKN035
     FM221600 24007KT 6SM BR VCSH BKN025=



000
FTUS41 KCLE 211900 AAA
TAFCLE
TAF AMD
KCLE 211946Z 2120/2224 25008KT P6SM SCT020 BKN040
      TEMPO 2121/2124 6SM -TSRA BR BKN020CB BKN090
     FM220000 24008KT P6SM BKN035 BKN100
      TEMPO 2204/2206 3SM -TSRA BR BKN025CB OVC080
     FM220800 16006KT P6SM BKN035 OVC100
      TEMPO 2211/2215 1SM +TSRA BR BKN015CB OVC025
     FM221600 24007KT 6SM BR VCSH BKN030=



000
FTUS41 KCLE 211900 AAA
TAFMFD
TAF AMD
KMFD 211944Z 2120/2218 22008KT 6SM -SHRA BR BKN040 BKN120
      TEMPO 2120/2124 5SM -TSRA BR BKN018CB BKN045
     FM220000 23007KT 6SM BR VCSH BKN040 BKN100
     FM220200 23005KT 5SM BR VCTS BKN035CB OVC080
      TEMPO 2210/2212 1SM TSRA BR BKN015CB OVC025
     FM221200 24007KT 6SM BR VCSH BKN030=



000
FTUS41 KCLE 211900 AAA
TAFFDY
TAF AMD
KFDY 211942Z 2120/2218 24008KT P6SM -SHRA BKN015 OVC100
      TEMPO 2120/2124 4SM -TSRA BR BKN025CB OVC080
     FM220000 23006KT P6SM -SHRA BKN040 BKN120
     FM220300 23005KT 5SM BR VCTS BKN035CB OVC080
      TEMPO 2208/2212 1SM +TSRA BR BKN015CB OVC025
     FM221200 24007KT 6SM BR VCSH BKN030=



000
FTUS41 KCLE 211900 AAA
TAFTOL
TAF AMD
KTOL 211939Z 2120/2218 23008KT P6SM VCSH BKN040 BKN120
     FM220200 23005KT 6SM BR VCTS BKN035CB OVC080
      TEMPO 2208/2212 1SM +TSRA BR BKN015CB OVC025
     FM221200 24007KT 6SM BR VCSH BKN030=



000
FTUS41 KCLE 211700
TAFCAK
TAF
KCAK 211732Z 2118/2218 23008KT P6SM SCT014 BKN040 BKN150
      TEMPO 2118/2121 6SM -TSRA BR BKN014CB BKN035
     FM212100 23008KT P6SM SCT035 BKN100
      TEMPO 2122/2202 1SM TSRA BR SCT015 OVC025CB
     FM220600 25004KT P6SM BKN035
     FM221600 24007KT 6SM BR VCSH BKN025=



000
FTUS41 KCLE 211700
TAFMFD
TAF
KMFD 211732Z 2118/2218 22010KT 6SM -SHRA BR BKN035 BKN120
      TEMPO 2118/2121 5SM -TSRA BR BKN020CB BKN045
     FM220200 23005KT 5SM BR VCTS BKN035CB OVC080
      TEMPO 2210/2212 1SM TSRA BR BKN015CB OVC025
     FM221200 24007KT 6SM BR VCSH BKN030=



000
FTUS41 KCLE 211700
TAFCLE
TAF
KCLE 211732Z 2118/2224 23008KT P6SM SCT020 BKN040
      TEMPO 2118/2121 6SM -TSRA BR BKN020CB BKN090
     FM212100 22008KT P6SM BKN035 BKN100
      TEMPO 2121/2123 3SM -TSRA BR BKN025CB OVC080
     FM220800 16006KT P6SM BKN035 OVC100
      TEMPO 2211/2215 1SM +TSRA BR BKN015CB OVC025
     FM221600 24007KT 6SM BR VCSH BKN030=



000
FTUS41 KCLE 211700
TAFERI
TAF
KERI 211732Z 2118/2218 24006KT P6SM SCT040 BKN100
     FM212100 26010KT P6SM VCSH SCT050 BKN100
     FM220200 23007KT 5SM BR SCT050 BKN100
     FM220900 23006KT 5SM BR VCSH SCT040 BKN100
     FM221200 24006KT 6SM BR VCSH BKN035 BKN100=



000
FTUS41 KCLE 211700
TAFTOL
TAF
KTOL 211732Z 2118/2218 23008KT P6SM VCSH BKN040 BKN120
      TEMPO 2118/2121 5SM -TSRA BR BKN025CB BKN050
     FM220200 23005KT 5SM BR VCTS BKN035CB OVC080
      TEMPO 2208/2212 1SM +TSRA BR BKN015CB OVC025
     FM221200 24007KT 6SM BR VCSH BKN030=



000
FTUS41 KCLE 211700
TAFFDY
TAF
KFDY 211732Z 2118/2218 24008KT P6SM -SHRA BKN040 OVC100
      TEMPO 2118/2121 3SM -TSRA BR BKN025CB OVC080
     FM212100 23006KT P6SM -SHRA BKN040 BKN120
     FM220300 23005KT 5SM BR VCTS BKN035CB OVC080
      TEMPO 2208/2212 1SM +TSRA BR BKN015CB OVC025
     FM221200 24007KT 6SM BR VCSH BKN030=



000
FTUS41 KCLE 211700
TAFYNG
TAF
KYNG 211732Z 2118/2218 23007KT P6SM VCSH BKN035
      TEMPO 2118/2120 6SM -TSRA BR BKN020CB BKN050
     FM212000 23008KT P6SM SCT035 BKN100
      TEMPO 2120/2124 2SM TSRA BR SCT015 OVC025CB
     FM220000 23004KT P6SM -SHRA BKN035 BKN100
     FM220600 24007KT 5SM BR VCSH BKN030 OVC100
     FM221200 24007KT 6SM BR VCSH BKN030=



000
FTUS41 KCLE 211700 AAB
TAFFDY
TAF AMD
KFDY 211702Z 2117/2212 23009KT P6SM -SHRA BKN018 OVC100
      TEMPO 2118/2121 3SM -TSRA BR BKN030CB OVC080
     FM212100 23008KT P6SM -SHRA BKN040 BKN120
     FM220300 23005KT 5SM BR VCTS BKN035CB OVC080
      TEMPO 2208/2212 1SM +TSRA BR BKN015CB OVC025=



000
FTUS41 KCLE 211600 AAA
TAFYNG
TAF AMD
KYNG 211623Z 2116/2212 23008KT P6SM BKN018 BKN050
      TEMPO 2116/2118 SCT018 BKN035 BKN100
     FM211800 24008KT P6SM SCT018 BKN035
     FM212000 24008KT P6SM VCSH SCT035 BKN100
      TEMPO 2120/2124 2SM TSRA BR SCT015 OVC025CB
     FM220000 23004KT P6SM SCT035 BKN100=



000
FTUS41 KCLE 211500 AAA
TAFFDY
TAF AMD
KFDY 211513Z 2115/2212 24008KT P6SM -SHRA BKN040 OVC100
      TEMPO 2115/2118 3SM -TSRA BR BKN025CB OVC080
     FM211800 23006KT P6SM -SHRA BKN040 BKN120
     FM220300 23005KT 5SM BR VCTS BKN035CB OVC080
      TEMPO 2208/2212 1SM +TSRA BR BKN015CB OVC025=



000
FTUS41 KCLE 211500 AAA
TAFCLE
TAF AMD
KCLE 211508Z 2115/2218 23008KT P6SM SCT015 BKN040
      TEMPO 2115/2118 BKN015 BKN090
     FM211800 22008KT P6SM BKN035 BKN100
      TEMPO 2121/2123 3SM -TSRA BR BKN025CB OVC080
     FM220800 16006KT P6SM BKN035 OVC100
      TEMPO 2211/2215 1SM +TSRA BR BKN015CB OVC025=



000
FTUS41 KCLE 211500 AAA
TAFCAK
TAF AMD
KCAK 211504Z 2115/2212 23008KT P6SM SCT012 BKN150
      TEMPO 2115/2118 BKN012 BKN035
     FM211800 23008KT P6SM SCT035 BKN100
      TEMPO 2122/2202 1SM TSRA BR SCT015 OVC025CB
     FM220600 25004KT P6SM BKN035=



000
FTUS41 KCLE 211100 CCA
TAFTOL
TAF COR
KTOL 211134Z 2112/2212 25004KT 5SM BR SCT025 BKN090
      TEMPO 2112/2114 2SM BR
     FM211400 26006KT P6SM SCT040 BKN120
     FM220200 23005KT 5SM BR VCTS BKN035CB OVC080
      TEMPO 2208/2212 1SM +TSRA BR BKN015CB OVC025=



000
FTUS41 KCLE 211100
TAFFDY
TAF
KFDY 211125Z 2112/2212 VRB03KT P6SM VCSH SCT040 OVC100
      TEMPO 2114/2117 3SM -TSRA BR BKN025CB OVC080
     FM211700 23006KT P6SM SCT040 BKN120
     FM220300 23005KT 5SM BR VCTS BKN035CB OVC080
      TEMPO 2208/2212 1SM +TSRA BR BKN015CB OVC025=



000
FTUS41 KCLE 211100
TAFTOL
TAF
KTOL 211125Z 2112/2212 25004KT P6SM SCT025 BKN090
      TEMPO 2112/2114 5SM BR
     FM211400 26006KT P6SM SCT040 BKN120
     FM220200 23005KT 5SM BR VCTS BKN035CB OVC080
      TEMPO 2208/2212 1SM +TSRA BR BKN015CB OVC025=



000
FTUS41 KCLE 211100
TAFMFD
TAF
KMFD 211125Z 2112/2212 24004KT P6SM SCT025 BKN150
      TEMPO 2112/2113 5SM BR
     FM211400 22008KT P6SM SCT035 BKN120
     FM220200 23005KT 5SM BR VCTS BKN035CB OVC080
      TEMPO 2210/2212 1SM TSRA BR BKN015CB OVC025=



000
FTUS41 KCLE 211100
TAFCAK
TAF
KCAK 211125Z 2112/2212 25004KT P6SM FEW015 BKN150
      TEMPO 2112/2113 5SM BR
     FM211400 24006KT P6SM SCT035 BKN100
      TEMPO 2122/2202 1SM TSRA BR SCT015 OVC025CB
     FM220600 25004KT P6SM BKN035=



000
FTUS41 KCLE 211100
TAFERI
TAF
KERI 211125Z 2112/2212 22006KT P6SM VCSH SCT040 BKN100
     FM211500 26010KT P6SM SCT050 BKN100
     FM220200 VRB03KT P6SM FEW050 BKN100=



000
FTUS41 KCLE 211100
TAFCLE
TAF
KCLE 211125Z 2112/2218 22008KT P6SM SCT035 BKN100
      TEMPO 2121/2123 3SM -TSRA BR BKN025CB OVC080
     FM220800 16006KT P6SM BKN035 OVC100
      TEMPO 2211/2215 1SM +TSRA BR BKN015CB OVC025=



000
FTUS41 KCLE 211100
TAFYNG
TAF
KYNG 211125Z 2112/2212 23004KT P6SM FEW015 SCT025
      TEMPO 2112/2113 5SM BR
     FM211400 25005KT P6SM BKN035
     FM212000 23005KT P6SM SCT035 BKN100
      TEMPO 2120/2124 2SM TSRA BR SCT015 OVC025CB
     FM220000 23004KT P6SM SCT035 BKN100=



000
FTUS41 KCLE 211000 AAA
TAFTOL
TAF AMD
KTOL 211012Z 2110/2206 25004KT P6SM SCT025 BKN090
      TEMPO 2111/2113 3SM BR
     FM211400 26006KT P6SM SCT040 BKN120
     FM220200 23005KT 5SM BR VCTS BKN035CB OVC080=



000
FTUS41 KCLE 211000 AAA
TAFFDY
TAF AMD
KFDY 211011Z 2110/2206 VRB03KT P6SM VCSH SCT040 OVC100
      TEMPO 2113/2116 3SM -TSRA BR BKN025CB OVC080
     FM211600 23006KT P6SM SCT040 BKN120
     FM220400 23005KT 5SM BR VCTS BKN035CB OVC080=



000
FTUS41 KCLE 211000 AAA
TAFCAK
TAF AMD
KCAK 211009Z 2110/2206 25004KT 6SM BR SCT015 BKN150
      TEMPO 2111/2113 2SM BR BKN015
     FM211400 24005KT P6SM BKN035
     FM212000 23005KT P6SM VCTS SCT035CB BKN100
      TEMPO 2121/2201 2SM TSRA BR SCT015 OVC025CB=



000
FTUS41 KCLE 211000 AAB
TAFYNG
TAF AMD
KYNG 211009Z 2110/2206 23004KT 6SM BR FEW015 SCT025
      TEMPO 2111/2113 2SM BR BKN015
     FM211400 25005KT P6SM BKN035
     FM212000 23005KT P6SM VCTS SCT035CB BKN100
      TEMPO 2121/2201 2SM TSRA BR SCT015 OVC025CB
     FM220100 23004KT P6SM SCT035 BKN100=



000
FTUS41 KCLE 210900 AAA
TAFMFD
TAF AMD
KMFD 210912Z 2109/2206 VRB03KT 6SM BR SCT035 BKN100
     FM211100 24004KT 5SM BR VCSH SCT025 OVC080
      TEMPO 2111/2113 3SM BR SCT015 OVC025
     FM211400 22008KT P6SM SCT035 BKN120
     FM212100 21008KT P6SM VCTS SCT040CB BKN100
     FM220400 22005KT 5SM BR FEW040 OVC150=



000
FTUS41 KCLE 210900 AAA
TAFYNG
TAF AMD
KYNG 210911Z 2109/2206 VRB04KT 6SM BR SCT050
     FM211000 23004KT 4SM BR FEW015 SCT025
      TEMPO 2110/2113 1SM BR BKN015
     FM211400 25005KT P6SM BKN035
     FM212000 23005KT P6SM VCTS SCT035CB BKN100
      TEMPO 2121/2201 2SM TSRA BR SCT015 OVC025CB
     FM220100 23004KT P6SM SCT035 BKN100=



000
FTUS41 KCLE 210800 AAA
TAFCLE
TAF AMD
KCLE 210853Z 2109/2212 23004KT 6SM BR VCSH SCT040 BKN100
     FM211100 23004KT 4SM BR BKN035 OVC100
     FM211500 24008KT P6SM SCT035 BKN120
      TEMPO 2121/2123 3SM -TSRA BR BKN025CB OVC080
     FM220500 16006KT 5SM BR BKN035 OVC100 PROB30 2207/2212 2SM TSRA
      BKN015 OVC025CB=



000
FTUS41 KCLE 210500
TAFMFD
TAF
KMFD 210537Z 2106/2206 VRB03KT 6SM BR SCT035 BKN100
     FM210900 24004KT 5SM BR VCSH SCT025 OVC080
      TEMPO 2110/2113 3SM BR SCT015 OVC025
     FM211400 22008KT P6SM SCT035 BKN120
     FM212100 21008KT P6SM VCTS SCT040CB BKN100
     FM220400 22005KT 5SM BR FEW040 OVC150=



000
FTUS41 KCLE 210500
TAFFDY
TAF
KFDY 210537Z 2106/2206 21005KT P6SM SCT040 BKN100
     FM210700 VRB03KT 6SM BR VCSH BKN040 OVC100
      TEMPO 2109/2112 3SM -TSRA BR BKN025CB OVC080
     FM211300 23006KT P6SM SCT040 BKN120
     FM220400 23005KT 5SM BR VCTS BKN035CB OVC080=



000
FTUS41 KCLE 210500
TAFCAK
TAF
KCAK 210537Z 2106/2206 25004KT 6SM BR SCT100
      TEMPO 2108/2110 3SM BR SCT015
     FM211000 25004KT 3SM BR SCT015 BKN100
      TEMPO 2111/2113 1SM BR BKN015
     FM211400 24005KT P6SM BKN035
     FM212000 23005KT P6SM VCTS SCT035CB BKN100
      TEMPO 2121/2201 2SM TSRA BR SCT015 OVC025CB=



000
FTUS41 KCLE 210500
TAFTOL
TAF
KTOL 210537Z 2106/2206 VRB03KT 6SM BR VCSH BKN040 OVC100
     FM211000 VRB03KT 5SM BR SCT025 BKN080
      TEMPO 2111/2113 2SM BR BKN025
     FM211400 26006KT P6SM SCT040 BKN120
     FM220200 23005KT 5SM BR VCTS BKN035CB OVC080=



000
FTUS41 KCLE 210500
TAFERI
TAF
KERI 210537Z 2106/2206 19008KT P6SM SCT070
     FM211200 23006KT P6SM BKN100
     FM211500 26010KT P6SM SCT050 BKN100
     FM220200 VRB03KT P6SM FEW050 BKN100=



000
FTUS41 KCLE 210500
TAFCLE
TAF
KCLE 210537Z 2106/2212 23006KT P6SM FEW040 SCT100
     FM210900 23004KT 5SM BR VCSH SCT040 BKN100
     FM211100 23004KT 4SM BR BKN035 OVC100
     FM211500 24008KT P6SM SCT035 BKN120
      TEMPO 2121/2123 3SM -TSRA BR BKN025CB OVC080
     FM220500 16006KT 5SM BR BKN035 OVC100 PROB30 2207/2212 2SM TSRA
      BKN015 OVC025CB=



000
FTUS41 KCLE 210500
TAFYNG
TAF
KYNG 210537Z 2106/2206 VRB04KT 6SM BR FEW035
     FM210800 23004KT 4SM BR FEW015 SCT025
      TEMPO 2110/2113 1SM BR BKN015
     FM211400 25005KT P6SM BKN035
     FM212000 23005KT P6SM VCTS SCT035CB BKN100
      TEMPO 2121/2201 2SM TSRA BR SCT015 OVC025CB
     FM220100 23004KT P6SM SCT035 BKN100=



000
FTUS41 KCLE 210400 AAA
TAFYNG
TAF AMD
KYNG 210419Z 2104/2124 20005KT P6SM BKN070
     FM210700 20003KT 4SM BR BKN100
      TEMPO 2110/2112 2SM BR BKN025
     FM211300 23008KT 6SM HZ BKN070
     FM211900 23010KT P6SM BKN050 PROB30 2120/2124 3SM TSRA
      OVC025CB=



000
FTUS41 KCLE 210200 AAA
TAFCLE
TAF AMD
KCLE 210252Z 2103/2206 24003KT P6SM SKC
     FM210900 21003KT 4SM BR BKN150
     FM211400 22005KT P6SM VCSH BKN070
     FM211800 24010KT P6SM BKN035
      TEMPO 2119/2122 3SM TSRA OVC025CB=



000
FTUS41 KCLE 202300
TAFCLE
TAF
KCLE 202326Z 2100/2206 27006KT P6SM BKN100
     FM210900 21003KT 4SM BR BKN070
     FM211400 22005KT P6SM VCSH BKN050
     FM211800 24010KT P6SM BKN035
      TEMPO 2119/2122 3SM TSRA OVC025CB=



000
FTUS41 KCLE 202300
TAFFDY
TAF
KFDY 202326Z 2100/2124 25008KT P6SM FEW050
     FM210800 23004KT 5SM BR BKN050
      TEMPO 2109/2112 3SM -SHRA
     FM211300 24006KT 6SM HZ BKN050
     FM211800 25008KT P6SM BKN035
      TEMPO 2118/2121 3SM TSRA OVC025CB=



000
FTUS41 KCLE 202300
TAFCAK
TAF
KCAK 202326Z 2100/2124 24005KT P6SM SCT070
     FM210500 22003KT 4SM BR BKN100
      TEMPO 2110/2112 2SM BR BKN025
     FM211300 23008KT 6SM HZ BKN070
     FM211900 23010KT P6SM BKN050 PROB30 2120/2124 3SM TSRA
      OVC025CB=



000
FTUS41 KCLE 202300
TAFMFD
TAF
KMFD 202326Z 2100/2124 26006KT P6SM SCT050
     FM210700 22003KT 5SM BR BKN100
      TEMPO 2110/2113 3SM -SHRA BR BKN035
     FM211300 23008KT 6SM HZ BKN070
     FM211900 23010KT P6SM BKN050
      TEMPO 2119/2122 3SM TSRA OVC025CB=



000
FTUS41 KCLE 202300
TAFTOL
TAF
KTOL 202326Z 2100/2124 27008KT P6SM FEW050
     FM210800 23004KT 5SM BR BKN050
      TEMPO 2109/2112 3SM -SHRA
     FM211300 24006KT 6SM HZ BKN050
     FM211800 25008KT P6SM BKN035
      TEMPO 2118/2121 3SM TSRA OVC025CB=



000
FTUS41 KCLE 202300
TAFERI
TAF
KERI 202326Z 2100/2124 18008KT P6SM SCT070
     FM210900 20004KT P6SM BKN100
      TEMPO 2110/2112 4SM BR
     FM211300 23008KT P6SM BKN050
     FM211800 27010KT P6SM BKN035 PROB30 2120/2124 3SM TSRA
      OVC025CB=



000
FTUS41 KCLE 202300
TAFYNG
TAF
KYNG 202326Z 2100/2124 20005KT P6SM BKN070
     FM210400 20003KT 4SM BR BKN100
      TEMPO 2110/2112 2SM BR BKN025
     FM211300 23008KT 6SM HZ BKN070
     FM211900 23010KT P6SM BKN050 PROB30 2120/2124 3SM TSRA
      OVC025CB=



000
FTUS41 KCLE 202100 AAA
TAFYNG
TAF AMD
KYNG 202117Z 2021/2118 25006KT P6SM BKN035
      TEMPO 2021/2023 3SM TSRA OVC025CB
     FM210000 24005KT P6SM SCT035 BKN250
     FM210900 24003KT 4SM BR VCSH SCT008 BKN045
      TEMPO 2109/2113 3SM BR BKN008
     FM211400 24006KT P6SM VCSH BKN035
      TEMPO 2114/2118 5SM TSRA BR BKN025CB=



000
FTUS41 KCLE 202000 AAB
TAFCLE
TAF AMD
KCLE 202053Z 2021/2124 25012KT P6SM BKN050
      TEMPO 2022/2024 4SM -SHRA
     FM210100 23005KT P6SM SCT045 BKN120
     FM210900 21003KT 6SM BR VCSH SCT025 BKN045
      TEMPO 2109/2113 4SM BR
     FM211400 24006KT P6SM VCSH BKN035
      TEMPO 2114/2118 5SM TSRA BR BKN025CB
     FM211800 25011KT P6SM VCTS BKN035CB=



000
FTUS41 KCLE 201900 AAA
TAFCLE
TAF AMD
KCLE 201947Z 2020/2124 24012G16KT P6SM VCSH SCT020 BKN045
      TEMPO 2020/2022 BKN020
     FM202200 25009KT P6SM VCSH BKN045
     FM210100 23005KT P6SM SCT045 BKN120
     FM210900 21003KT 6SM BR VCSH SCT025 BKN045
      TEMPO 2109/2113 4SM BR
     FM211400 24006KT P6SM VCSH BKN035
      TEMPO 2114/2118 5SM TSRA BR BKN025CB
     FM211800 25011KT P6SM VCTS BKN035CB=



000
FTUS41 KCLE 201900 AAA
TAFFDY
TAF AMD
KFDY 201932Z 2020/2118 25012G18KT P6SM SCT045
     FM210200 27005KT P6SM SCT120 BKN250
     FM210600 22003KT 6SM BR BKN120
      TEMPO 2106/2109 4SM BR
     FM210900 22003KT 5SM BR VCTS BKN035CB
      TEMPO 2109/2113 3SM -SHRA BR BKN035
     FM211300 22007KT 6SM HZ VCTS BKN025CB=



000
FTUS41 KCLE 201900 AAA
TAFTOL
TAF AMD
KTOL 201931Z 2020/2118 25012G18KT P6SM VCSH BKN050
     FM210200 27005KT P6SM SCT150 BKN250
     FM210600 24003KT 6SM BR BKN150
      TEMPO 2106/2109 4SM BR
     FM210900 24003KT 5SM BR VCTS BKN035CB
      TEMPO 2109/2113 3SM -SHRA BR BKN035
     FM211300 24007KT 6SM HZ VCTS BKN025CB=



000
FTUS41 KCLE 201800 AAA
TAFMFD
TAF AMD
KMFD 201853Z 2019/2118 20008KT P6SM BKN035
     FM202200 24005KT P6SM SCT025 BKN250
     FM210600 22003KT 5SM BR BKN120 BKN250
      TEMPO 2106/2110 4SM BR
     FM211000 22003KT 5SM BR VCTS BKN035CB
      TEMPO 2110/2114 3SM -SHRA BR BKN035
     FM211400 24008KT 6SM HZ VCTS BKN025CB=



000
FTUS41 KCLE 201700
TAFYNG
TAF
KYNG 201736Z 2018/2118 20008KT P6SM BKN020 BKN050
      TEMPO 2018/2021 BKN020
     FM202100 25006KT P6SM VCTS BKN035CB
     FM210000 24005KT P6SM SCT035 BKN250
     FM210900 24003KT 4SM BR VCSH SCT008 BKN045
      TEMPO 2109/2113 3SM BR BKN008
     FM211400 24006KT P6SM VCSH BKN035
      TEMPO 2114/2118 5SM TSRA BR BKN025CB=



000
FTUS41 KCLE 201700
TAFCAK
TAF
KCAK 201736Z 2018/2118 20011KT P6SM VCSH BKN018 BKN035
      TEMPO 2018/2021 SCT018 BKN035
     FM202100 25006KT P6SM VCTS BKN035CB
     FM210000 24005KT P6SM SCT035 BKN250
     FM210900 24003KT 4SM BR VCSH SCT012 BKN045
      TEMPO 2109/2113 3SM BR BKN012
     FM211400 24006KT P6SM VCSH BKN035
      TEMPO 2114/2118 5SM TSRA BR BKN025CB=



000
FTUS41 KCLE 201700
TAFTOL
TAF
KTOL 201736Z 2018/2118 25007KT P6SM SCT025 BKN035
      TEMPO 2018/2022 BKN025
     FM210200 27005KT P6SM SCT150 BKN250
     FM210600 24003KT 6SM BR BKN150
      TEMPO 2106/2109 4SM BR
     FM210900 24003KT 5SM BR VCTS BKN035CB
      TEMPO 2109/2113 3SM -SHRA BR BKN035
     FM211300 24007KT 6SM HZ VCTS BKN025CB=



000
FTUS41 KCLE 201700
TAFMFD
TAF
KMFD 201736Z 2018/2118 20008KT P6SM BKN025
     FM202200 24005KT P6SM SCT025 BKN250
     FM210600 22003KT 5SM BR BKN120 BKN250
      TEMPO 2106/2110 4SM BR
     FM211000 22003KT 5SM BR VCTS BKN035CB
      TEMPO 2110/2114 3SM -SHRA BR BKN035
     FM211400 24008KT 6SM HZ VCTS BKN025CB=



000
FTUS41 KCLE 201700
TAFCLE
TAF
KCLE 201736Z 2018/2124 20011KT P6SM VCSH SCT020 BKN045
      TEMPO 2018/2022 BKN020
     FM202200 25006KT P6SM VCSH BKN045
     FM210100 23005KT P6SM SCT045 BKN120
     FM210900 21003KT 6SM BR VCSH SCT025 BKN045
      TEMPO 2109/2113 4SM BR
     FM211400 24006KT P6SM VCSH BKN035
      TEMPO 2114/2118 5SM TSRA BR BKN025CB
     FM211800 25011KT P6SM VCTS BKN035CB=



000
FTUS41 KCLE 201700
TAFFDY
TAF
KFDY 201736Z 2018/2118 25007KT P6SM SCT020 BKN035
      TEMPO 2018/2022 BKN020
     FM210200 27005KT P6SM SCT120 BKN250
     FM210600 22003KT 6SM BR BKN120
      TEMPO 2106/2109 4SM BR
     FM210900 22003KT 5SM BR VCTS BKN035CB
      TEMPO 2109/2113 3SM -SHRA BR BKN035
     FM211300 22007KT 6SM HZ VCTS BKN025CB=



000
FTUS41 KCLE 201700
TAFERI
TAF
KERI 201736Z 2018/2118 17011KT P6SM SCT045 BKN250
     FM202100 20011KT P6SM VCSH BKN025
     FM210200 18004KT P6SM SCT015 BKN250
      TEMPO 2109/2113 6SM BR BKN015
     FM211300 22008KT P6SM VCSH SCT015 BKN025=



000
FTUS41 KCLE 201500 AAC
TAFCAK
TAF AMD
KCAK 201559Z 2016/2112 22011KT P6SM BKN020
     FM201800 24011KT P6SM BKN035
     FM202300 24005KT P6SM VCSH BKN040 BKN150
     FM211100 VRB03KT 3SM BR FEW014 SCT100=



000
FTUS41 KCLE 201500 AAA
TAFCLE
TAF AMD
KCLE 201537Z 2016/2118 20011KT P6SM SCT025 BKN045
      TEMPO 2016/2018 BKN025
     FM202000 23006KT P6SM VCSH BKN045
     FM210100 23005KT P6SM SCT045 BKN120
     FM211000 22004KT 4SM BR FEW015 SCT100=



000
FTUS41 KCLE 201500 AAB
TAFCAK
TAF AMD
KCAK 201525Z 2015/2112 22011KT P6SM BKN045
     FM201700 24011KT P6SM BKN045
     FM202300 24005KT P6SM VCSH BKN040 BKN150
     FM211100 VRB03KT 3SM BR FEW014 SCT100=



000
FTUS41 KCLE 201400 AAA
TAFCLE
TAF AMD
KCLE 201455Z 2015/2118 20010KT P6SM SCT045
     FM201600 23010KT P6SM BKN045
     FM202000 23006KT P6SM VCSH BKN045
     FM210100 23005KT P6SM SCT045 BKN120
     FM211000 22004KT 4SM BR FEW015 SCT100=



000
FTUS41 KCLE 201400 AAA
TAFCAK
TAF AMD
KCAK 201445Z 2015/2112 22008KT P6SM BKN025
     FM201700 24009KT P6SM VCTS BKN035CB OVC150
     FM202300 24005KT P6SM BKN040 BKN150
     FM211100 VRB03KT 3SM BR FEW014 SCT100=



000
FTUS41 KCLE 201400 AAB
TAFYNG
TAF AMD
KYNG 201445Z 2015/2112 16008KT P6SM BKN006
     FM201800 24010KT P6SM VCTS BKN035CB OVC150
     FM210100 24005KT P6SM BKN040 BKN150
     FM211000 VRB03KT 3SM BR SCT015=



000
FTUS41 KCLE 201400 AAA
TAFFDY
TAF AMD
KFDY 201417Z 2014/2112 23005KT P6SM SCT010
      TEMPO 2014/2016 3SM BR BKN010
     FM201600 26010KT P6SM BKN250
     FM202000 27007KT P6SM SCT040
     FM211000 VRB03KT 4SM BR FEW015 SCT100=



000
FTUS41 KCLE 201400 AAA
TAFYNG
TAF AMD
KYNG 201413Z 2014/2112 16008KT P6SM BKN035
     FM201800 24010KT P6SM VCTS BKN035CB OVC150
     FM210100 24005KT P6SM BKN040 BKN150
     FM211000 VRB03KT 3SM BR SCT015=



000
FTUS41 KCLE 201400 AAB
TAFTOL
TAF AMD
KTOL 201412Z 2014/2112 25004KT P6SM BKN008
      TEMPO 2014/2016 SCT008
     FM201600 26012KT P6SM SCT040
     FM211000 VRB03KT 4SM BR FEW015 SCT100=



000
FTUS41 KCLE 201400 AAA
TAFMFD
TAF AMD
KMFD 201407Z 2014/2112 21006KT P6SM SCT010
      TEMPO 2014/2016 BKN010
     FM201600 24010KT P6SM BKN035
     FM211000 VRB04KT 4SM BR FEW012 SCT100=



000
FTUS41 KCLE 201300 CCA
TAFTOL
TAF COR
KTOL 201342Z 2014/2112 25004KT P6SM BKN010
      TEMPO 2014/2016 SCT010
     FM201600 26012KT P6SM SCT040
     FM211000 VRB03KT 4SM BR FEW015 SCT100=



000
FTUS41 KCLE 201300 AAA
TAFTOL
TAF AMD
KTOL 201341Z 2014/2112 25004KT P6SM BKN006
      TEMPO 2014/2016 SCT006
     FM201600 26012KT P6SM SCT040
     FM211000 VRB03KT 4SM BR FEW015 SCT100=



000
FTUS41 KCLE 201100
TAFCLE
TAF
KCLE 201120Z 2012/2118 18008KT P6SM SCT035 BKN150
     FM201600 24010KT P6SM VCTS BKN035CB OVC150
     FM202100 24006KT P6SM BKN040
     FM211000 22004KT 4SM BR FEW015 SCT100=



000
FTUS41 KCLE 201100
TAFMFD
TAF
KMFD 201120Z 2012/2112 18006KT P6SM SCT100 BKN150
     FM201500 24010KT P6SM BKN035
     FM211000 VRB04KT 4SM BR FEW012 SCT100=



000
FTUS41 KCLE 201100
TAFFDY
TAF
KFDY 201120Z 2012/2112 22005KT P6SM SCT015 BKN150
      TEMPO 2012/2013 3SM BR OVC250
     FM201400 26010KT P6SM BKN250
     FM202000 27007KT P6SM SCT040
     FM211000 VRB03KT 4SM BR FEW015 SCT100=



000
FTUS41 KCLE 201100
TAFCAK
TAF
KCAK 201120Z 2012/2112 19006KT 6SM BR SCT008 OVC100
     FM201400 22008KT P6SM BKN035
     FM201700 24009KT P6SM VCTS BKN035CB OVC150
     FM202300 24005KT P6SM BKN040 BKN150
     FM211100 VRB03KT 3SM BR FEW014 SCT100=



000
FTUS41 KCLE 201100
TAFYNG
TAF
KYNG 201120Z 2012/2112 17008KT 6SM BR VCTS SCT015 OVC035CB
      TEMPO 2012/2013 2SM -TSRA BR BKN004 OVC025CB
     FM201400 19006KT P6SM SCT004 BKN025
     FM201800 24010KT P6SM VCTS BKN035CB OVC150
     FM210100 24005KT P6SM BKN040 BKN150
     FM211000 VRB03KT 3SM BR SCT015=



000
FTUS41 KCLE 201100
TAFERI
TAF
KERI 201120Z 2012/2112 17012KT P6SM VCSH SCT050 OVC150
      TEMPO 2012/2014 3SM -TSRA BR SCT025 OVC035CB
     FM201600 22010KT P6SM VCTS BKN040CB OVC150
     FM202300 21008KT P6SM SCT040 BKN150=



000
FTUS41 KCLE 201100
TAFTOL
TAF
KTOL 201120Z 2012/2112 25004KT P6SM FEW005 SCT150
      TEMPO 2012/2013 3SM BR SCT005
     FM201400 25012KT P6SM BKN035
     FM201900 28010KT P6SM SCT040
     FM211000 VRB03KT 4SM BR FEW015 SCT100=



000
FTUS41 KCLE 201000 AAB
TAFYNG
TAF AMD
KYNG 201007Z 2010/2106 14008KT 6SM BR VCTS SCT015 OVC035CB
      TEMPO 2010/2013 3SM -TSRA BR BKN004 OVC025CB
     FM201300 19006KT 6SM BR SCT004 BKN015
     FM201500 22008KT P6SM BKN025
     FM201800 24009KT P6SM VCTS BKN035CB OVC150
     FM210100 24005KT P6SM BKN040 BKN150=



000
FTUS41 KCLE 201000 AAA
TAFCAK
TAF AMD
KCAK 201006Z 2010/2106 VRB04KT P6SM VCTS SCT015 OVC035CB
      TEMPO 2010/2012 3SM -TSRA BR BKN003 OVC015CB
     FM201200 19006KT 5SM BR SCT008 BKN015
     FM201400 22008KT P6SM BKN025
     FM201700 24009KT P6SM VCTS BKN035CB OVC150
     FM202300 24005KT P6SM BKN040 BKN150=



000
FTUS41 KCLE 201000 AAB
TAFMFD
TAF AMD
KMFD 201005Z 2010/2106 16008KT P6SM SCT035 BKN150
      TEMPO 2010/2013 5SM BR
     FM201400 24010KT P6SM BKN035=



000
FTUS41 KCLE 201000 AAA
TAFCLE
TAF AMD
KCLE 201004Z 2010/2112 16008KT P6SM VCSH SCT050 OVC100
      TEMPO 2010/2011 6SM -TSRA BR BKN035CB OVC050
     FM201100 19008KT 5SM BR SCT025 BKN150
     FM201500 24010KT P6SM VCTS BKN035CB OVC150
     FM202100 24006KT P6SM BKN040=



000
FTUS41 KCLE 201000 AAA
TAFTOL
TAF AMD
KTOL 201003Z 2010/2106 23004KT P6SM BKN150
      TEMPO 2010/2013 4SM BR BKN015
     FM201400 27012KT P6SM BKN035
     FM201900 28010KT P6SM SCT040=



    US Dept of Commerce
    National Oceanic and Atmospheric Administration
    National Weather Service
    1325 East West Highway
    Silver Spring, MD 20910
    Page Author: NWS Internet Services Team
Disclaimer
Information Quality
Credits
Glossary
Privacy Policy
Freedom of Information Act (FOIA)
About Us
Career Opportunities